NOS76TA LIRF-LIPX
Flight info
| Callsign | NOS76TA |
|---|---|
| Flight time | 0h 44m |
| Altitude | 32000 |
| Route | SOVAN DCT AMTEL DCT BOA/N0362F180 Y72 XUBKA |
| Aircraft | B789/H-SDE1E2E3FGHIJ2J3J4J5M1RWXY/LB1D1 |
Departure
| Time | 2026-05-04 15:29 |
|---|---|
| Airport | Rome–Fiumicino Leonardo da Vinci International Airport (LIRF) |
Arrival
| Time | 2026-05-04 16:13 |
|---|---|
| Airport | Verona Villafranca Valerio Catullo Airport (LIPX) |
| Time | Latitude | Longitude | Altitude | Speed | Heading |
|---|---|---|---|---|---|
| 2026-05-04 14:40 | 41.79249 | 12.24245 | 20 ft | 0 kts | 70° |
| 2026-05-04 15:13 | 41.79248 | 12.24240 | 19 ft | 3 kts | 70° |
| 2026-05-04 15:13 | 41.79239 | 12.24212 | 21 ft | 3 kts | 64° |
| 2026-05-04 15:13 | 41.79228 | 12.24185 | 20 ft | 3 kts | 56° |
| 2026-05-04 15:13 | 41.79214 | 12.24161 | 22 ft | 3 kts | 46° |
| 2026-05-04 15:14 | 41.79198 | 12.24141 | 23 ft | 3 kts | 30° |
| 2026-05-04 15:14 | 41.79180 | 12.24131 | 22 ft | 3 kts | 4° |
| 2026-05-04 15:14 | 41.79165 | 12.24133 | 21 ft | 0 kts | 340° |
| 2026-05-04 15:19 | 41.79198 | 12.24116 | 23 ft | 5 kts | 339° |
| 2026-05-04 15:19 | 41.79243 | 12.24093 | 19 ft | 9 kts | 339° |
| 2026-05-04 15:19 | 41.79345 | 12.24011 | 19 ft | 2 kts | 280° |
| 2026-05-04 15:20 | 41.79342 | 12.23991 | 20 ft | 3 kts | 253° |
| 2026-05-04 15:20 | 41.79338 | 12.23927 | 20 ft | 9 kts | 279° |
| 2026-05-04 15:20 | 41.79367 | 12.23877 | 20 ft | 7 kts | 338° |
| 2026-05-04 15:20 | 41.79439 | 12.23852 | 20 ft | 12 kts | 343° |
| 2026-05-04 15:21 | 41.79532 | 12.23814 | 20 ft | 16 kts | 342° |
| 2026-05-04 15:21 | 41.79643 | 12.23763 | 20 ft | 18 kts | 341° |
| 2026-05-04 15:21 | 41.79864 | 12.23687 | 20 ft | 16 kts | 16° |
| 2026-05-04 15:22 | 41.79942 | 12.23848 | 21 ft | 17 kts | 70° |
| 2026-05-04 15:22 | 41.79971 | 12.23950 | 19 ft | 18 kts | 69° |
| 2026-05-04 15:22 | 41.80045 | 12.24281 | 19 ft | 20 kts | 68° |
| 2026-05-04 15:23 | 41.80090 | 12.24444 | 19 ft | 18 kts | 73° |
| 2026-05-04 15:23 | 41.80133 | 12.24617 | 20 ft | 20 kts | 68° |
| 2026-05-04 15:23 | 41.80187 | 12.24802 | 21 ft | 22 kts | 72° |
| 2026-05-04 15:23 | 41.80205 | 12.25007 | 19 ft | 23 kts | 88° |
| 2026-05-04 15:24 | 41.80300 | 12.25414 | 21 ft | 24 kts | 69° |
| 2026-05-04 15:24 | 41.80388 | 12.25730 | 21 ft | 19 kts | 69° |
| 2026-05-04 15:25 | 41.80435 | 12.25899 | 21 ft | 18 kts | 70° |
| 2026-05-04 15:25 | 41.80481 | 12.26067 | 21 ft | 20 kts | 70° |
| 2026-05-04 15:25 | 41.80529 | 12.26251 | 23 ft | 22 kts | 70° |
| 2026-05-04 15:26 | 41.80647 | 12.26663 | 23 ft | 26 kts | 69° |
| 2026-05-04 15:26 | 41.80710 | 12.26894 | 19 ft | 22 kts | 71° |
| 2026-05-04 15:26 | 41.80905 | 12.26996 | 19 ft | 18 kts | 336° |
| 2026-05-04 15:27 | 41.80950 | 12.26880 | 18 ft | 11 kts | 251° |
| 2026-05-04 15:27 | 41.80930 | 12.26820 | 19 ft | 0 kts | 248° |
| 2026-05-04 15:28 | 41.80917 | 12.26776 | 18 ft | 23 kts | 248° |
| 2026-05-04 15:28 | 41.80383 | 12.24769 | 296 ft | 176 kts | 247° |
| 2026-05-04 15:29 | 41.79983 | 12.23164 | 1291 ft | 189 kts | 249° |
| 2026-05-04 15:30 | 41.79662 | 12.16462 | 4089 ft | 207 kts | 261° |
| 2026-05-04 15:30 | 41.76743 | 12.12072 | 4072 ft | 209 kts | 216° |
| 2026-05-04 15:31 | 41.74629 | 12.09506 | 4060 ft | 204 kts | 220° |
| 2026-05-04 15:31 | 41.73611 | 12.08234 | 4323 ft | 196 kts | 220° |
| 2026-05-04 15:32 | 41.70041 | 12.03892 | 7056 ft | 244 kts | 214° |
| 2026-05-04 15:32 | 41.67784 | 12.00579 | 9478 ft | 254 kts | 255° |
| 2026-05-04 15:33 | 41.68675 | 11.96061 | 11690 ft | 270 kts | 312° |
| 2026-05-04 15:34 | 41.74229 | 11.93984 | 14949 ft | 293 kts | 353° |
| 2026-05-04 15:34 | 41.76287 | 11.93845 | 15918 ft | 299 kts | 353° |
| 2026-05-04 15:34 | 41.80499 | 11.93640 | 17887 ft | 307 kts | 353° |
| 2026-05-04 15:35 | 41.84838 | 11.93460 | 19649 ft | 315 kts | 354° |
| 2026-05-04 15:35 | 41.87043 | 11.93362 | 20496 ft | 319 kts | 354° |
| 2026-05-04 15:35 | 41.89271 | 11.93251 | 21333 ft | 322 kts | 354° |
| 2026-05-04 15:36 | 41.93803 | 11.92985 | 23031 ft | 326 kts | 354° |
| 2026-05-04 15:36 | 41.96090 | 11.92832 | 23761 ft | 331 kts | 354° |
| 2026-05-04 15:36 | 41.98403 | 11.92672 | 24428 ft | 334 kts | 353° |
| 2026-05-04 15:37 | 42.00704 | 11.92530 | 25086 ft | 336 kts | 353° |
| 2026-05-04 15:37 | 42.03054 | 11.92416 | 25727 ft | 339 kts | 353° |
| 2026-05-04 15:37 | 42.05422 | 11.92336 | 26368 ft | 342 kts | 353° |
| 2026-05-04 15:37 | 42.07813 | 11.92288 | 27005 ft | 345 kts | 353° |
| 2026-05-04 15:38 | 42.10227 | 11.92272 | 27604 ft | 348 kts | 353° |
| 2026-05-04 15:38 | 42.12655 | 11.92289 | 28252 ft | 351 kts | 353° |
| 2026-05-04 15:38 | 42.15108 | 11.92336 | 28844 ft | 354 kts | 353° |
| 2026-05-04 15:38 | 42.17581 | 11.92412 | 29446 ft | 357 kts | 353° |
| 2026-05-04 15:39 | 42.20076 | 11.92518 | 29997 ft | 360 kts | 353° |
| 2026-05-04 15:39 | 42.22588 | 11.92651 | 30518 ft | 363 kts | 353° |
| 2026-05-04 15:39 | 42.27669 | 11.92974 | 31530 ft | 367 kts | 353° |
| 2026-05-04 15:40 | 42.30231 | 11.93153 | 32005 ft | 370 kts | 353° |
| 2026-05-04 15:40 | 42.32830 | 11.93336 | 32131 ft | 380 kts | 354° |
| 2026-05-04 15:40 | 42.35476 | 11.93524 | 32116 ft | 378 kts | 354° |
| 2026-05-04 15:41 | 42.40665 | 11.93921 | 32122 ft | 371 kts | 354° |
| 2026-05-04 15:41 | 42.45896 | 11.93866 | 32156 ft | 381 kts | 341° |
| 2026-05-04 15:42 | 42.51077 | 11.91791 | 32164 ft | 395 kts | 327° |
| 2026-05-04 15:42 | 42.55863 | 11.88060 | 32143 ft | 398 kts | 322° |
| 2026-05-04 15:43 | 42.60609 | 11.84157 | 32146 ft | 400 kts | 326° |
| 2026-05-04 15:43 | 42.65708 | 11.81013 | 32144 ft | 408 kts | 331° |
| 2026-05-04 15:44 | 42.70971 | 11.78122 | 32141 ft | 407 kts | 331° |
| 2026-05-04 15:44 | 42.76319 | 11.75556 | 32147 ft | 411 kts | 339° |
| 2026-05-04 15:45 | 42.82017 | 11.74273 | 32136 ft | 416 kts | 345° |
| 2026-05-04 15:45 | 42.87693 | 11.72859 | 32136 ft | 414 kts | 341° |
| 2026-05-04 15:46 | 42.93378 | 11.71359 | 32133 ft | 417 kts | 343° |
| 2026-05-04 15:46 | 42.99088 | 11.69922 | 32129 ft | 417 kts | 342° |
| 2026-05-04 15:47 | 43.04779 | 11.68435 | 32117 ft | 417 kts | 343° |
| 2026-05-04 15:47 | 43.10517 | 11.66968 | 32121 ft | 420 kts | 342° |
| 2026-05-04 15:48 | 43.16220 | 11.65486 | 32122 ft | 420 kts | 342° |
| 2026-05-04 15:48 | 43.24821 | 11.63260 | 32117 ft | 419 kts | 343° |
| 2026-05-04 15:49 | 43.30578 | 11.61762 | 32121 ft | 422 kts | 343° |
| 2026-05-04 15:49 | 43.36352 | 11.60262 | 32121 ft | 421 kts | 343° |
| 2026-05-04 15:50 | 43.42066 | 11.58771 | 32118 ft | 420 kts | 343° |
| 2026-05-04 15:50 | 43.47859 | 11.57255 | 32125 ft | 423 kts | 344° |
| 2026-05-04 15:51 | 43.53625 | 11.55748 | 32126 ft | 425 kts | 344° |
| 2026-05-04 15:51 | 43.59421 | 11.54227 | 32126 ft | 423 kts | 344° |
| 2026-05-04 15:52 | 43.65201 | 11.52708 | 32130 ft | 423 kts | 344° |
| 2026-05-04 15:52 | 43.70997 | 11.51183 | 32128 ft | 425 kts | 344° |
| 2026-05-04 15:53 | 43.76812 | 11.49647 | 32123 ft | 425 kts | 344° |
| 2026-05-04 15:53 | 43.82625 | 11.48110 | 32122 ft | 425 kts | 344° |
| 2026-05-04 15:54 | 43.85550 | 11.47333 | 31731 ft | 431 kts | 345° |
| 2026-05-04 15:54 | 43.88504 | 11.46550 | 31216 ft | 431 kts | 345° |
| 2026-05-04 15:54 | 43.91443 | 11.45774 | 30712 ft | 428 kts | 345° |
| 2026-05-04 15:54 | 43.94362 | 11.45000 | 30211 ft | 425 kts | 345° |
| 2026-05-04 15:55 | 43.97264 | 11.44227 | 29582 ft | 424 kts | 345° |
| 2026-05-04 15:55 | 44.00129 | 11.43463 | 28999 ft | 424 kts | 345° |
| 2026-05-04 15:55 | 44.03032 | 11.42689 | 28419 ft | 427 kts | 345° |
| 2026-05-04 15:55 | 44.05941 | 11.41914 | 28121 ft | 425 kts | 346° |
| 2026-05-04 15:56 | 44.11837 | 11.40337 | 28129 ft | 438 kts | 346° |
| 2026-05-04 15:56 | 44.17823 | 11.38740 | 28117 ft | 438 kts | 346° |
| 2026-05-04 15:57 | 44.23821 | 11.37129 | 28052 ft | 440 kts | 346° |
| 2026-05-04 15:57 | 44.26847 | 11.36315 | 27656 ft | 442 kts | 346° |
| 2026-05-04 15:57 | 44.29861 | 11.35508 | 27236 ft | 438 kts | 346° |
| 2026-05-04 15:58 | 44.32857 | 11.34703 | 26850 ft | 437 kts | 346° |
| 2026-05-04 15:58 | 44.35851 | 11.33893 | 26471 ft | 439 kts | 346° |
| 2026-05-04 15:58 | 44.38809 | 11.33094 | 26108 ft | 440 kts | 346° |
| 2026-05-04 15:58 | 44.41827 | 11.32281 | 25745 ft | 442 kts | 346° |
| 2026-05-04 15:59 | 44.44848 | 11.31465 | 25381 ft | 443 kts | 346° |
| 2026-05-04 15:59 | 44.47891 | 11.30641 | 25035 ft | 446 kts | 346° |
| 2026-05-04 15:59 | 44.50936 | 11.29817 | 24690 ft | 447 kts | 346° |
| 2026-05-04 15:59 | 44.53993 | 11.28973 | 24347 ft | 445 kts | 344° |
| 2026-05-04 16:00 | 44.56990 | 11.27922 | 24009 ft | 444 kts | 344° |
| 2026-05-04 16:00 | 44.59994 | 11.26930 | 23671 ft | 443 kts | 345° |
| 2026-05-04 16:00 | 44.62992 | 11.25943 | 23271 ft | 441 kts | 344° |
| 2026-05-04 16:00 | 44.65970 | 11.24926 | 22914 ft | 439 kts | 344° |
| 2026-05-04 16:01 | 44.68935 | 11.23905 | 22516 ft | 436 kts | 344° |
| 2026-05-04 16:01 | 44.71879 | 11.22907 | 22117 ft | 433 kts | 344° |
| 2026-05-04 16:01 | 44.74796 | 11.21923 | 21732 ft | 430 kts | 344° |
| 2026-05-04 16:01 | 44.77653 | 11.20952 | 21352 ft | 427 kts | 344° |
| 2026-05-04 16:02 | 44.80533 | 11.19967 | 20976 ft | 424 kts | 344° |
| 2026-05-04 16:02 | 44.83394 | 11.18990 | 20601 ft | 422 kts | 344° |
| 2026-05-04 16:02 | 44.89064 | 11.17056 | 19873 ft | 416 kts | 344° |
| 2026-05-04 16:03 | 44.91876 | 11.16094 | 19513 ft | 414 kts | 344° |
| 2026-05-04 16:03 | 44.94663 | 11.15139 | 19151 ft | 411 kts | 344° |
| 2026-05-04 16:03 | 44.97447 | 11.14184 | 18795 ft | 409 kts | 344° |
| 2026-05-04 16:03 | 45.00207 | 11.13237 | 18457 ft | 406 kts | 344° |
| 2026-05-04 16:04 | 45.02941 | 11.12298 | 18060 ft | 404 kts | 344° |
| 2026-05-04 16:04 | 45.08404 | 11.10395 | 17285 ft | 403 kts | 341° |
| 2026-05-04 16:04 | 45.10908 | 11.08802 | 16915 ft | 398 kts | 326° |
| 2026-05-04 16:05 | 45.13043 | 11.06353 | 16550 ft | 394 kts | 310° |
| 2026-05-04 16:05 | 45.14655 | 11.03255 | 16176 ft | 389 kts | 298° |
| 2026-05-04 16:05 | 45.17433 | 10.96666 | 15452 ft | 389 kts | 298° |
| 2026-05-04 16:06 | 45.18805 | 10.93358 | 15090 ft | 388 kts | 298° |
| 2026-05-04 16:06 | 45.21146 | 10.84049 | 13988 ft | 366 kts | 265° |
| 2026-05-04 16:07 | 45.20541 | 10.79680 | 13038 ft | 314 kts | 246° |
| 2026-05-04 16:07 | 45.17821 | 10.73414 | 11103 ft | 263 kts | 250° |
| 2026-05-04 16:08 | 45.17782 | 10.70840 | 10453 ft | 268 kts | 284° |
| 2026-05-04 16:08 | 45.22429 | 10.67221 | 8440 ft | 273 kts | 355° |
| 2026-05-04 16:09 | 45.25833 | 10.68876 | 7115 ft | 261 kts | 47° |
| 2026-05-04 16:09 | 45.28288 | 10.72518 | 5944 ft | 250 kts | 46° |
| 2026-05-04 16:10 | 45.30722 | 10.76015 | 4673 ft | 236 kts | 46° |
| 2026-05-04 16:11 | 45.33828 | 10.80689 | 1921 ft | 197 kts | 48° |
| 2026-05-04 16:11 | 45.34718 | 10.82038 | 1130 ft | 180 kts | 44° |
| 2026-05-04 16:12 | 45.37196 | 10.85423 | 633 ft | 162 kts | 45° |
| 2026-05-04 16:12 | 45.39490 | 10.88755 | 245 ft | 108 kts | 48° |
| 2026-05-04 16:13 | 45.39885 | 10.89306 | 246 ft | 8 kts | 45° |
| 2026-05-04 16:13 | 45.39945 | 10.89394 | 248 ft | 10 kts | 46° |
| 2026-05-04 16:14 | 45.40060 | 10.89566 | 250 ft | 14 kts | 46° |
| 2026-05-04 16:14 | 45.40208 | 10.89787 | 252 ft | 18 kts | 46° |
| 2026-05-04 16:15 | 45.40322 | 10.90184 | 249 ft | 0 kts | 76° |
| 2026-05-04 16:16 | 45.40334 | 10.90263 | 248 ft | 4 kts | 82° |
| 2026-05-04 16:16 | 45.40535 | 10.90581 | 248 ft | 22 kts | 45° |
| 2026-05-04 16:17 | 45.40559 | 10.90708 | 248 ft | 2 kts | 130° |
| 2026-05-04 16:18 | 45.40576 | 10.90784 | 248 ft | 0 kts | 46° |